sensor_id;sensor_type;location;lat;lon;timestamp;P1;durP1;ratioP1;P2;durP2;ratioP2
68457;SDS011;65384;52.016;5.428;2023-04-25T00:02:08;13.88;;;2.70;;
68457;SDS011;65384;52.016;5.428;2023-04-25T00:04:34;11.23;;;2.50;;
68457;SDS011;65384;52.016;5.428;2023-04-25T00:06:59;13.23;;;2.80;;
68457;SDS011;65384;52.016;5.428;2023-04-25T00:09:27;12.85;;;2.67;;
68457;SDS011;65384;52.016;5.428;2023-04-25T00:11:53;20.13;;;2.70;;
68457;SDS011;65384;52.016;5.428;2023-04-25T00:14:18;13.25;;;2.55;;
68457;SDS011;65384;52.016;5.428;2023-04-25T00:16:43;8.82;;;2.10;;
68457;SDS011;65384;52.016;5.428;2023-04-25T00:19:09;15.10;;;2.70;;
68457;SDS011;65384;52.016;5.428;2023-04-25T00:21:34;18.50;;;3.05;;
68457;SDS011;65384;52.016;5.428;2023-04-25T00:24:00;18.45;;;2.67;;
68457;SDS011;65384;52.016;5.428;2023-04-25T00:26:26;14.85;;;2.75;;
68457;SDS011;65384;52.016;5.428;2023-04-25T00:28:52;8.60;;;2.25;;
68457;SDS011;65384;52.016;5.428;2023-04-25T00:31:17;12.63;;;2.55;;
68457;SDS011;65384;52.016;5.428;2023-04-25T00:33:43;13.45;;;3.15;;
68457;SDS011;65384;52.016;5.428;2023-04-25T00:36:08;13.15;;;2.55;;
68457;SDS011;65384;52.016;5.428;2023-04-25T00:38:34;11.45;;;2.85;;
68457;SDS011;65384;52.016;5.428;2023-04-25T00:41:00;12.35;;;2.72;;
68457;SDS011;65384;52.016;5.428;2023-04-25T00:43:28;16.25;;;3.13;;
68457;SDS011;65384;52.016;5.428;2023-04-25T00:45:55;14.68;;;2.53;;
68457;SDS011;65384;52.016;5.428;2023-04-25T00:48:22;11.93;;;2.72;;
68457;SDS011;65384;52.016;5.428;2023-04-25T00:50:55;14.40;;;3.15;;
68457;SDS011;65384;52.016;5.428;2023-04-25T00:53:22;12.35;;;2.90;;
68457;SDS011;65384;52.016;5.428;2023-04-25T00:55:49;17.42;;;2.63;;
68457;SDS011;65384;52.016;5.428;2023-04-25T00:58:16;14.98;;;2.70;;
68457;SDS011;65384;52.016;5.428;2023-04-25T01:00:42;12.50;;;2.90;;
68457;SDS011;65384;52.016;5.428;2023-04-25T01:03:07;12.50;;;2.50;;
68457;SDS011;65384;52.016;5.428;2023-04-25T01:05:33;10.95;;;2.45;;
68457;SDS011;65384;52.016;5.428;2023-04-25T01:07:58;15.05;;;2.28;;
68457;SDS011;65384;52.016;5.428;2023-04-25T01:10:24;15.10;;;2.50;;
68457;SDS011;65384;52.016;5.428;2023-04-25T01:12:49;13.70;;;2.67;;
68457;SDS011;65384;52.016;5.428;2023-04-25T01:15:15;8.65;;;2.13;;
68457;SDS011;65384;52.016;5.428;2023-04-25T01:17:40;10.73;;;2.40;;
68457;SDS011;65384;52.016;5.428;2023-04-25T01:20:06;11.30;;;2.30;;
68457;SDS011;65384;52.016;5.428;2023-04-25T01:22:34;13.73;;;2.58;;
68457;SDS011;65384;52.016;5.428;2023-04-25T01:25:00;10.75;;;2.60;;
68457;SDS011;65384;52.016;5.428;2023-04-25T01:27:25;13.88;;;2.33;;
68457;SDS011;65384;52.016;5.428;2023-04-25T01:29:51;12.48;;;2.80;;
68457;SDS011;65384;52.016;5.428;2023-04-25T01:32:17;6.80;;;2.45;;
68457;SDS011;65384;52.016;5.428;2023-04-25T01:34:43;11.30;;;2.60;;
68457;SDS011;65384;52.016;5.428;2023-04-25T01:37:08;8.82;;;2.45;;
68457;SDS011;65384;52.016;5.428;2023-04-25T01:39:33;10.80;;;2.38;;
68457;SDS011;65384;52.016;5.428;2023-04-25T01:41:59;9.27;;;2.15;;
68457;SDS011;65384;52.016;5.428;2023-04-25T01:44:25;10.77;;;2.08;;
68457;SDS011;65384;52.016;5.428;2023-04-25T01:46:50;10.82;;;2.50;;
68457;SDS011;65384;52.016;5.428;2023-04-25T01:49:16;13.27;;;2.83;;
68457;SDS011;65384;52.016;5.428;2023-04-25T01:51:41;11.82;;;2.25;;
68457;SDS011;65384;52.016;5.428;2023-04-25T01:54:07;7.50;;;2.53;;
68457;SDS011;65384;52.016;5.428;2023-04-25T01:56:34;15.30;;;2.58;;
68457;SDS011;65384;52.016;5.428;2023-04-25T01:59:02;8.07;;;2.40;;
68457;SDS011;65384;52.016;5.428;2023-04-25T02:01:28;16.88;;;2.50;;
68457;SDS011;65384;52.016;5.428;2023-04-25T02:03:53;11.80;;;2.53;;
68457;SDS011;65384;52.016;5.428;2023-04-25T02:06:19;19.52;;;4.20;;
68457;SDS011;65384;52.016;5.428;2023-04-25T02:08:44;10.68;;;2.70;;
68457;SDS011;65384;52.016;5.428;2023-04-25T02:11:09;10.68;;;2.60;;
68457;SDS011;65384;52.016;5.428;2023-04-25T02:13:35;9.27;;;2.40;;
68457;SDS011;65384;52.016;5.428;2023-04-25T02:16:00;11.65;;;2.58;;
68457;SDS011;65384;52.016;5.428;2023-04-25T02:18:25;10.38;;;2.33;;
68457;SDS011;65384;52.016;5.428;2023-04-25T02:20:51;18.63;;;2.53;;
68457;SDS011;65384;52.016;5.428;2023-04-25T02:23:16;9.25;;;2.42;;
68457;SDS011;65384;52.016;5.428;2023-04-25T02:25:44;10.73;;;2.40;;
68457;SDS011;65384;52.016;5.428;2023-04-25T02:28:09;8.75;;;2.38;;
68457;SDS011;65384;52.016;5.428;2023-04-25T02:30:35;10.85;;;2.97;;
68457;SDS011;65384;52.016;5.428;2023-04-25T02:33:00;12.52;;;2.80;;
68457;SDS011;65384;52.016;5.428;2023-04-25T02:35:26;10.23;;;2.38;;
68457;SDS011;65384;52.016;5.428;2023-04-25T02:37:51;11.18;;;2.75;;
68457;SDS011;65384;52.016;5.428;2023-04-25T02:40:17;11.73;;;2.35;;
68457;SDS011;65384;52.016;5.428;2023-04-25T02:42:42;11.77;;;2.50;;
68457;SDS011;65384;52.016;5.428;2023-04-25T02:45:08;9.75;;;2.70;;
68457;SDS011;65384;52.016;5.428;2023-04-25T02:47:33;6.88;;;2.30;;
68457;SDS011;65384;52.016;5.428;2023-04-25T02:49:59;10.57;;;2.85;;
68457;SDS011;65384;52.016;5.428;2023-04-25T02:52:24;9.35;;;2.70;;
68457;SDS011;65384;52.016;5.428;2023-04-25T02:54:50;14.32;;;2.70;;
68457;SDS011;65384;52.016;5.428;2023-04-25T02:57:15;11.40;;;3.00;;
68457;SDS011;65384;52.016;5.428;2023-04-25T02:59:41;13.70;;;2.55;;
68457;SDS011;65384;52.016;5.428;2023-04-25T03:02:06;11.80;;;3.00;;
68457;SDS011;65384;52.016;5.428;2023-04-25T03:04:31;6.65;;;2.75;;
68457;SDS011;65384;52.016;5.428;2023-04-25T03:06:58;11.13;;;2.70;;
68457;SDS011;65384;52.016;5.428;2023-04-25T03:09:24;15.68;;;2.80;;
68457;SDS011;65384;52.016;5.428;2023-04-25T03:11:49;9.95;;;2.42;;
68457;SDS011;65384;52.016;5.428;2023-04-25T03:14:14;14.57;;;2.60;;
68457;SDS011;65384;52.016;5.428;2023-04-25T03:16:40;12.93;;;2.75;;
68457;SDS011;65384;52.016;5.428;2023-04-25T03:19:05;10.32;;;2.55;;
68457;SDS011;65384;52.016;5.428;2023-04-25T03:21:31;10.20;;;3.00;;
68457;SDS011;65384;52.016;5.428;2023-04-25T03:23:58;10.85;;;2.47;;
68457;SDS011;65384;52.016;5.428;2023-04-25T03:26:24;13.20;;;3.53;;
68457;SDS011;65384;52.016;5.428;2023-04-25T03:28:49;9.40;;;3.00;;
68457;SDS011;65384;52.016;5.428;2023-04-25T03:31:15;10.55;;;2.88;;
68457;SDS011;65384;52.016;5.428;2023-04-25T03:33:40;7.28;;;2.63;;
68457;SDS011;65384;52.016;5.428;2023-04-25T03:36:06;13.85;;;2.97;;
68457;SDS011;65384;52.016;5.428;2023-04-25T03:38:32;11.25;;;3.15;;
68457;SDS011;65384;52.016;5.428;2023-04-25T03:40:57;13.93;;;3.33;;
68457;SDS011;65384;52.016;5.428;2023-04-25T03:43:22;15.07;;;3.15;;
68457;SDS011;65384;52.016;5.428;2023-04-25T03:45:48;15.30;;;3.33;;
68457;SDS011;65384;52.016;5.428;2023-04-25T03:48:13;16.88;;;3.55;;
68457;SDS011;65384;52.016;5.428;2023-04-25T03:50:38;13.23;;;3.10;;
68457;SDS011;65384;52.016;5.428;2023-04-25T03:53:04;14.73;;;4.03;;
68457;SDS011;65384;52.016;5.428;2023-04-25T03:55:29;13.30;;;3.30;;
68457;SDS011;65384;52.016;5.428;2023-04-25T03:57:55;10.32;;;2.90;;
68457;SDS011;65384;52.016;5.428;2023-04-25T04:00:22;13.73;;;3.40;;
68457;SDS011;65384;52.016;5.428;2023-04-25T04:02:48;13.02;;;3.25;;
68457;SDS011;65384;52.016;5.428;2023-04-25T04:05:13;8.52;;;2.75;;
68457;SDS011;65384;52.016;5.428;2023-04-25T04:07:39;16.80;;;3.20;;
68457;SDS011;65384;52.016;5.428;2023-04-25T04:10:08;9.60;;;2.88;;
68457;SDS011;65384;52.016;5.428;2023-04-25T04:12:34;16.08;;;3.10;;
68457;SDS011;65384;52.016;5.428;2023-04-25T04:15:01;9.00;;;2.92;;
68457;SDS011;65384;52.016;5.428;2023-04-25T04:17:30;11.45;;;2.70;;
68457;SDS011;65384;52.016;5.428;2023-04-25T04:19:56;15.60;;;2.78;;
68457;SDS011;65384;52.016;5.428;2023-04-25T04:22:21;11.02;;;2.90;;
68457;SDS011;65384;52.016;5.428;2023-04-25T04:24:47;10.95;;;2.47;;
68457;SDS011;65384;52.016;5.428;2023-04-25T04:27:14;9.07;;;3.10;;
68457;SDS011;65384;52.016;5.428;2023-04-25T04:29:42;13.50;;;2.78;;
68457;SDS011;65384;52.016;5.428;2023-04-25T04:32:07;10.60;;;2.53;;
68457;SDS011;65384;52.016;5.428;2023-04-25T04:34:33;7.75;;;2.40;;
68457;SDS011;65384;52.016;5.428;2023-04-25T04:36:59;9.38;;;2.10;;
68457;SDS011;65384;52.016;5.428;2023-04-25T04:39:25;9.55;;;2.10;;
68457;SDS011;65384;52.016;5.428;2023-04-25T04:41:50;10.02;;;3.15;;
68457;SDS011;65384;52.016;5.428;2023-04-25T04:44:16;14.68;;;2.22;;
68457;SDS011;65384;52.016;5.428;2023-04-25T04:46:41;5.97;;;1.88;;
68457;SDS011;65384;52.016;5.428;2023-04-25T04:49:11;7.97;;;2.10;;
68457;SDS011;65384;52.016;5.428;2023-04-25T04:51:37;12.20;;;2.33;;
68457;SDS011;65384;52.016;5.428;2023-04-25T04:54:03;11.70;;;2.13;;
68457;SDS011;65384;52.016;5.428;2023-04-25T04:56:29;10.55;;;1.98;;
68457;SDS011;65384;52.016;5.428;2023-04-25T04:58:56;9.30;;;2.10;;
68457;SDS011;65384;52.016;5.428;2023-04-25T05:01:22;5.05;;;1.80;;
68457;SDS011;65384;52.016;5.428;2023-04-25T05:03:47;6.22;;;1.83;;
68457;SDS011;65384;52.016;5.428;2023-04-25T05:06:12;7.50;;;1.83;;
68457;SDS011;65384;52.016;5.428;2023-04-25T05:08:38;6.93;;;2.20;;
68457;SDS011;65384;52.016;5.428;2023-04-25T05:11:03;8.43;;;1.67;;
68457;SDS011;65384;52.016;5.428;2023-04-25T05:13:29;8.85;;;2.13;;
68457;SDS011;65384;52.016;5.428;2023-04-25T05:15:55;8.73;;;1.70;;
68457;SDS011;65384;52.016;5.428;2023-04-25T05:18:20;5.20;;;1.48;;
68457;SDS011;65384;52.016;5.428;2023-04-25T05:20:46;7.60;;;1.75;;
68457;SDS011;65384;52.016;5.428;2023-04-25T05:23:11;6.78;;;1.80;;
68457;SDS011;65384;52.016;5.428;2023-04-25T05:25:36;7.68;;;1.67;;
68457;SDS011;65384;52.016;5.428;2023-04-25T05:28:02;6.15;;;1.70;;
68457;SDS011;65384;52.016;5.428;2023-04-25T05:30:27;8.85;;;1.75;;
68457;SDS011;65384;52.016;5.428;2023-04-25T05:32:52;8.73;;;1.38;;
68457;SDS011;65384;52.016;5.428;2023-04-25T05:35:18;9.18;;;1.65;;
68457;SDS011;65384;52.016;5.428;2023-04-25T05:37:43;11.18;;;1.65;;
68457;SDS011;65384;52.016;5.428;2023-04-25T05:40:08;10.27;;;1.60;;
68457;SDS011;65384;52.016;5.428;2023-04-25T05:42:34;4.68;;;1.30;;
68457;SDS011;65384;52.016;5.428;2023-04-25T05:45:00;7.28;;;1.60;;
68457;SDS011;65384;52.016;5.428;2023-04-25T05:47:25;5.45;;;1.48;;
68457;SDS011;65384;52.016;5.428;2023-04-25T05:49:51;11.70;;;1.50;;
68457;SDS011;65384;52.016;5.428;2023-04-25T05:52:16;7.20;;;1.98;;
68457;SDS011;65384;52.016;5.428;2023-04-25T05:54:42;7.63;;;1.50;;
68457;SDS011;65384;52.016;5.428;2023-04-25T05:57:07;7.25;;;1.70;;
68457;SDS011;65384;52.016;5.428;2023-04-25T05:59:32;3.42;;;1.15;;
68457;SDS011;65384;52.016;5.428;2023-04-25T06:01:58;7.32;;;1.27;;
68457;SDS011;65384;52.016;5.428;2023-04-25T06:04:24;7.20;;;1.40;;
68457;SDS011;65384;52.016;5.428;2023-04-25T06:06:50;6.65;;;1.30;;
68457;SDS011;65384;52.016;5.428;2023-04-25T06:09:15;4.93;;;1.40;;
68457;SDS011;65384;52.016;5.428;2023-04-25T06:11:41;8.23;;;1.60;;
68457;SDS011;65384;52.016;5.428;2023-04-25T06:14:06;8.13;;;1.40;;
68457;SDS011;65384;52.016;5.428;2023-04-25T06:16:32;6.05;;;1.50;;
68457;SDS011;65384;52.016;5.428;2023-04-25T06:18:57;4.40;;;1.02;;
68457;SDS011;65384;52.016;5.428;2023-04-25T06:21:23;7.03;;;1.23;;
68457;SDS011;65384;52.016;5.428;2023-04-25T06:23:48;4.18;;;1.10;;
68457;SDS011;65384;52.016;5.428;2023-04-25T06:26:13;4.50;;;1.52;;
68457;SDS011;65384;52.016;5.428;2023-04-25T06:28:39;5.25;;;1.10;;
68457;SDS011;65384;52.016;5.428;2023-04-25T06:31:04;5.88;;;1.52;;
68457;SDS011;65384;52.016;5.428;2023-04-25T06:33:29;7.43;;;1.58;;
68457;SDS011;65384;52.016;5.428;2023-04-25T06:35:55;7.45;;;1.15;;
68457;SDS011;65384;52.016;5.428;2023-04-25T06:38:20;7.70;;;1.45;;
68457;SDS011;65384;52.016;5.428;2023-04-25T06:40:46;7.85;;;1.25;;
68457;SDS011;65384;52.016;5.428;2023-04-25T06:43:11;6.93;;;1.33;;
68457;SDS011;65384;52.016;5.428;2023-04-25T06:45:36;6.63;;;1.60;;
68457;SDS011;65384;52.016;5.428;2023-04-25T06:48:02;7.97;;;1.38;;
68457;SDS011;65384;52.016;5.428;2023-04-25T06:50:27;4.85;;;1.17;;
68457;SDS011;65384;52.016;5.428;2023-04-25T06:52:52;8.32;;;1.50;;
68457;SDS011;65384;52.016;5.428;2023-04-25T06:55:18;8.13;;;1.30;;
68457;SDS011;65384;52.016;5.428;2023-04-25T06:57:43;6.28;;;1.50;;
68457;SDS011;65384;52.016;5.428;2023-04-25T07:00:09;9.52;;;1.35;;
68457;SDS011;65384;52.016;5.428;2023-04-25T07:02:34;4.78;;;1.15;;
68457;SDS011;65384;52.016;5.428;2023-04-25T07:05:00;5.65;;;1.33;;
68457;SDS011;65384;52.016;5.428;2023-04-25T07:07:28;9.57;;;1.20;;
68457;SDS011;65384;52.016;5.428;2023-04-25T07:09:55;4.30;;;1.10;;
68457;SDS011;65384;52.016;5.428;2023-04-25T07:12:20;4.80;;;1.30;;
68457;SDS011;65384;52.016;5.428;2023-04-25T07:14:46;6.72;;;1.38;;
68457;SDS011;65384;52.016;5.428;2023-04-25T07:17:11;8.15;;;1.17;;
68457;SDS011;65384;52.016;5.428;2023-04-25T07:19:36;9.65;;;1.20;;
68457;SDS011;65384;52.016;5.428;2023-04-25T07:22:03;5.82;;;1.27;;
68457;SDS011;65384;52.016;5.428;2023-04-25T07:24:29;8.52;;;1.40;;
68457;SDS011;65384;52.016;5.428;2023-04-25T07:26:54;7.90;;;1.45;;
68457;SDS011;65384;52.016;5.428;2023-04-25T07:29:20;7.72;;;1.20;;
68457;SDS011;65384;52.016;5.428;2023-04-25T07:31:45;10.77;;;1.25;;
68457;SDS011;65384;52.016;5.428;2023-04-25T07:34:11;7.57;;;1.00;;
68457;SDS011;65384;52.016;5.428;2023-04-25T07:36:36;6.40;;;1.10;;
68457;SDS011;65384;52.016;5.428;2023-04-25T07:39:01;8.45;;;1.30;;
68457;SDS011;65384;52.016;5.428;2023-04-25T07:41:27;5.88;;;1.00;;
68457;SDS011;65384;52.016;5.428;2023-04-25T07:43:52;10.70;;;1.00;;
68457;SDS011;65384;52.016;5.428;2023-04-25T07:46:17;5.63;;;1.08;;
68457;SDS011;65384;52.016;5.428;2023-04-25T07:48:43;2.63;;;0.85;;
68457;SDS011;65384;52.016;5.428;2023-04-25T07:51:08;3.67;;;1.00;;
68457;SDS011;65384;52.016;5.428;2023-04-25T07:53:33;7.35;;;0.90;;
68457;SDS011;65384;52.016;5.428;2023-04-25T07:56:01;7.22;;;1.00;;
68457;SDS011;65384;52.016;5.428;2023-04-25T07:58:27;3.97;;;1.10;;
68457;SDS011;65384;52.016;5.428;2023-04-25T08:00:53;9.73;;;1.25;;
68457;SDS011;65384;52.016;5.428;2023-04-25T08:03:18;3.60;;;0.98;;
68457;SDS011;65384;52.016;5.428;2023-04-25T08:05:43;2.97;;;0.80;;
68457;SDS011;65384;52.016;5.428;2023-04-25T08:08:09;5.13;;;1.00;;
68457;SDS011;65384;52.016;5.428;2023-04-25T08:10:34;4.10;;;0.80;;
68457;SDS011;65384;52.016;5.428;2023-04-25T08:13:00;6.30;;;1.10;;
68457;SDS011;65384;52.016;5.428;2023-04-25T08:15:25;3.80;;;0.65;;
68457;SDS011;65384;52.016;5.428;2023-04-25T08:17:51;4.70;;;1.02;;
68457;SDS011;65384;52.016;5.428;2023-04-25T08:20:16;4.10;;;0.90;;
68457;SDS011;65384;52.016;5.428;2023-04-25T08:22:42;7.20;;;1.27;;
68457;SDS011;65384;52.016;5.428;2023-04-25T08:25:07;5.00;;;0.73;;
68457;SDS011;65384;52.016;5.428;2023-04-25T08:27:33;6.15;;;0.90;;
68457;SDS011;65384;52.016;5.428;2023-04-25T08:29:58;5.85;;;1.00;;
68457;SDS011;65384;52.016;5.428;2023-04-25T08:32:24;5.10;;;0.90;;
68457;SDS011;65384;52.016;5.428;2023-04-25T08:34:49;3.65;;;0.80;;
68457;SDS011;65384;52.016;5.428;2023-04-25T08:37:16;3.97;;;0.85;;
68457;SDS011;65384;52.016;5.428;2023-04-25T08:39:41;5.93;;;1.00;;
68457;SDS011;65384;52.016;5.428;2023-04-25T08:42:07;4.03;;;0.90;;
68457;SDS011;65384;52.016;5.428;2023-04-25T08:44:35;4.78;;;1.10;;
68457;SDS011;65384;52.016;5.428;2023-04-25T08:47:04;4.80;;;0.90;;
68457;SDS011;65384;52.016;5.428;2023-04-25T08:49:33;7.22;;;0.90;;
68457;SDS011;65384;52.016;5.428;2023-04-25T08:52:02;6.20;;;0.98;;
68457;SDS011;65384;52.016;5.428;2023-04-25T08:54:30;8.63;;;1.08;;
68457;SDS011;65384;52.016;5.428;2023-04-25T08:56:57;3.80;;;0.85;;
68457;SDS011;65384;52.016;5.428;2023-04-25T08:59:23;3.30;;;0.70;;
68457;SDS011;65384;52.016;5.428;2023-04-25T09:01:49;3.05;;;0.80;;
68457;SDS011;65384;52.016;5.428;2023-04-25T09:04:15;2.88;;;0.70;;
68457;SDS011;65384;52.016;5.428;2023-04-25T09:06:40;5.10;;;0.80;;
68457;SDS011;65384;52.016;5.428;2023-04-25T09:09:07;5.43;;;0.85;;
68457;SDS011;65384;52.016;5.428;2023-04-25T09:11:33;3.33;;;0.60;;
68457;SDS011;65384;52.016;5.428;2023-04-25T09:16:57;5.70;;;1.00;;
68457;SDS011;65384;52.016;5.428;2023-04-25T09:19:31;2.85;;;0.95;;
68457;SDS011;65384;52.016;5.428;2023-04-25T09:21:58;3.13;;;0.82;;
68457;SDS011;65384;52.016;5.428;2023-04-25T09:24:32;4.05;;;0.77;;
68457;SDS011;65384;52.016;5.428;2023-04-25T09:27:08;4.40;;;0.85;;
68457;SDS011;65384;52.016;5.428;2023-04-25T09:29:39;3.38;;;0.70;;
68457;SDS011;65384;52.016;5.428;2023-04-25T09:32:22;4.35;;;0.77;;
68457;SDS011;65384;52.016;5.428;2023-04-25T09:37:21;3.13;;;0.80;;
68457;SDS011;65384;52.016;5.428;2023-04-25T09:39:53;2.85;;;0.65;;
68457;SDS011;65384;52.016;5.428;2023-04-25T09:42:24;2.45;;;0.70;;
68457;SDS011;65384;52.016;5.428;2023-04-25T09:44:53;3.22;;;0.98;;
68457;SDS011;65384;52.016;5.428;2023-04-25T09:47:19;5.03;;;1.10;;
68457;SDS011;65384;52.016;5.428;2023-04-25T09:49:47;7.60;;;1.15;;
68457;SDS011;65384;52.016;5.428;2023-04-25T09:52:14;6.30;;;1.00;;
68457;SDS011;65384;52.016;5.428;2023-04-25T09:54:49;4.07;;;0.80;;
68457;SDS011;65384;52.016;5.428;2023-04-25T09:57:15;2.22;;;0.80;;
68457;SDS011;65384;52.016;5.428;2023-04-25T09:59:48;6.10;;;0.80;;
68457;SDS011;65384;52.016;5.428;2023-04-25T10:02:16;5.18;;;0.88;;
68457;SDS011;65384;52.016;5.428;2023-04-25T10:04:50;4.77;;;0.97;;
68457;SDS011;65384;52.016;5.428;2023-04-25T10:07:19;8.98;;;1.00;;
68457;SDS011;65384;52.016;5.428;2023-04-25T10:09:50;7.20;;;1.00;;
68457;SDS011;65384;52.016;5.428;2023-04-25T10:12:20;4.05;;;1.00;;
68457;SDS011;65384;52.016;5.428;2023-04-25T10:14:46;5.38;;;0.98;;
68457;SDS011;65384;52.016;5.428;2023-04-25T10:17:12;7.25;;;1.02;;
68457;SDS011;65384;52.016;5.428;2023-04-25T10:19:38;6.68;;;1.08;;
68457;SDS011;65384;52.016;5.428;2023-04-25T10:22:06;3.17;;;0.93;;
68457;SDS011;65384;52.016;5.428;2023-04-25T10:24:33;3.38;;;0.68;;
68457;SDS011;65384;52.016;5.428;2023-04-25T10:27:00;5.30;;;0.88;;
68457;SDS011;65384;52.016;5.428;2023-04-25T10:29:26;6.18;;;0.90;;
68457;SDS011;65384;52.016;5.428;2023-04-25T10:31:52;4.93;;;0.75;;
68457;SDS011;65384;52.016;5.428;2023-04-25T10:34:17;2.88;;;0.80;;
68457;SDS011;65384;52.016;5.428;2023-04-25T10:36:44;7.60;;;0.80;;
68457;SDS011;65384;52.016;5.428;2023-04-25T10:39:15;6.25;;;1.45;;
68457;SDS011;65384;52.016;5.428;2023-04-25T10:44:13;5.60;;;1.00;;
68457;SDS011;65384;52.016;5.428;2023-04-25T10:46:39;3.10;;;0.93;;
68457;SDS011;65384;52.016;5.428;2023-04-25T10:49:05;5.20;;;0.90;;
68457;SDS011;65384;52.016;5.428;2023-04-25T10:51:33;5.32;;;0.90;;
68457;SDS011;65384;52.016;5.428;2023-04-25T10:54:00;5.15;;;0.90;;
68457;SDS011;65384;52.016;5.428;2023-04-25T10:56:27;4.10;;;0.80;;
68457;SDS011;65384;52.016;5.428;2023-04-25T10:59:13;5.75;;;1.20;;
68457;SDS011;65384;52.016;5.428;2023-04-25T11:01:41;8.00;;;0.90;;
68457;SDS011;65384;52.016;5.428;2023-04-25T11:09:35;4.80;;;1.10;;
68457;SDS011;65384;52.016;5.428;2023-04-25T11:12:01;4.20;;;0.88;;
68457;SDS011;65384;52.016;5.428;2023-04-25T11:14:27;5.95;;;0.90;;
68457;SDS011;65384;52.016;5.428;2023-04-25T11:16:55;4.50;;;0.85;;
68457;SDS011;65384;52.016;5.428;2023-04-25T11:19:22;1.67;;;0.90;;
68457;SDS011;65384;52.016;5.428;2023-04-25T11:21:48;3.00;;;0.80;;
68457;SDS011;65384;52.016;5.428;2023-04-25T11:24:13;5.88;;;1.10;;
68457;SDS011;65384;52.016;5.428;2023-04-25T11:26:42;2.75;;;0.80;;
68457;SDS011;65384;52.016;5.428;2023-04-25T11:29:08;3.67;;;0.85;;
68457;SDS011;65384;52.016;5.428;2023-04-25T11:31:34;3.35;;;1.05;;
68457;SDS011;65384;52.016;5.428;2023-04-25T11:33:59;2.65;;;0.73;;
68457;SDS011;65384;52.016;5.428;2023-04-25T11:36:25;4.15;;;0.90;;
68457;SDS011;65384;52.016;5.428;2023-04-25T11:38:51;4.93;;;1.08;;
68457;SDS011;65384;52.016;5.428;2023-04-25T11:41:18;3.60;;;0.77;;
68457;SDS011;65384;52.016;5.428;2023-04-25T11:43:44;5.25;;;1.02;;
68457;SDS011;65384;52.016;5.428;2023-04-25T11:46:09;4.47;;;0.88;;
68457;SDS011;65384;52.016;5.428;2023-04-25T11:48:38;2.63;;;0.90;;
68457;SDS011;65384;52.016;5.428;2023-04-25T11:51:07;3.80;;;0.90;;
68457;SDS011;65384;52.016;5.428;2023-04-25T11:53:33;5.28;;;1.23;;
68457;SDS011;65384;52.016;5.428;2023-04-25T11:55:59;4.85;;;0.77;;
68457;SDS011;65384;52.016;5.428;2023-04-25T11:58:25;5.32;;;0.80;;
68457;SDS011;65384;52.016;5.428;2023-04-25T12:00:50;8.20;;;1.10;;
68457;SDS011;65384;52.016;5.428;2023-04-25T12:03:17;4.03;;;0.80;;
68457;SDS011;65384;52.016;5.428;2023-04-25T12:05:42;3.67;;;0.80;;
68457;SDS011;65384;52.016;5.428;2023-04-25T12:08:12;6.18;;;1.00;;
68457;SDS011;65384;52.016;5.428;2023-04-25T12:10:39;2.95;;;0.88;;
68457;SDS011;65384;52.016;5.428;2023-04-25T12:13:19;3.17;;;0.90;;
68457;SDS011;65384;52.016;5.428;2023-04-25T12:15:45;3.22;;;0.63;;
68457;SDS011;65384;52.016;5.428;2023-04-25T12:18:11;3.65;;;0.80;;
68457;SDS011;65384;52.016;5.428;2023-04-25T12:20:36;4.88;;;0.80;;
68457;SDS011;65384;52.016;5.428;2023-04-25T12:23:01;3.75;;;0.68;;
68457;SDS011;65384;52.016;5.428;2023-04-25T12:25:38;3.97;;;0.90;;
68457;SDS011;65384;52.016;5.428;2023-04-25T12:33:19;2.28;;;0.80;;
68457;SDS011;65384;52.016;5.428;2023-04-25T12:35:46;2.67;;;0.88;;
68457;SDS011;65384;52.016;5.428;2023-04-25T12:38:11;3.80;;;0.80;;
68457;SDS011;65384;52.016;5.428;2023-04-25T12:40:36;5.38;;;0.98;;
68457;SDS011;65384;52.016;5.428;2023-04-25T12:43:02;4.13;;;0.90;;
68457;SDS011;65384;52.016;5.428;2023-04-25T12:45:27;2.63;;;0.70;;
68457;SDS011;65384;52.016;5.428;2023-04-25T12:47:52;2.80;;;0.70;;
68457;SDS011;65384;52.016;5.428;2023-04-25T12:50:18;3.47;;;0.80;;
68457;SDS011;65384;52.016;5.428;2023-04-25T12:52:43;3.03;;;0.57;;
68457;SDS011;65384;52.016;5.428;2023-04-25T12:55:08;3.72;;;1.33;;
68457;SDS011;65384;52.016;5.428;2023-04-25T12:57:34;3.13;;;0.70;;
68457;SDS011;65384;52.016;5.428;2023-04-25T12:59:59;2.50;;;0.75;;
68457;SDS011;65384;52.016;5.428;2023-04-25T13:02:25;1.50;;;0.70;;
68457;SDS011;65384;52.016;5.428;2023-04-25T13:04:50;1.58;;;0.77;;
68457;SDS011;65384;52.016;5.428;2023-04-25T13:07:16;6.75;;;1.00;;
68457;SDS011;65384;52.016;5.428;2023-04-25T13:09:41;6.25;;;1.30;;
68457;SDS011;65384;52.016;5.428;2023-04-25T13:12:07;2.35;;;0.88;;
68457;SDS011;65384;52.016;5.428;2023-04-25T13:14:32;2.83;;;0.90;;
68457;SDS011;65384;52.016;5.428;2023-04-25T13:16:57;2.13;;;0.80;;
68457;SDS011;65384;52.016;5.428;2023-04-25T13:19:23;1.85;;;0.80;;
68457;SDS011;65384;52.016;5.428;2023-04-25T13:21:48;2.20;;;0.70;;
68457;SDS011;65384;52.016;5.428;2023-04-25T13:24:13;3.00;;;1.20;;
68457;SDS011;65384;52.016;5.428;2023-04-25T13:26:39;2.85;;;0.80;;
68457;SDS011;65384;52.016;5.428;2023-04-25T13:29:04;4.22;;;0.90;;
68457;SDS011;65384;52.016;5.428;2023-04-25T13:31:30;3.97;;;0.90;;
68457;SDS011;65384;52.016;5.428;2023-04-25T13:33:56;4.95;;;1.17;;
68457;SDS011;65384;52.016;5.428;2023-04-25T13:36:21;4.00;;;0.93;;
68457;SDS011;65384;52.016;5.428;2023-04-25T13:38:46;4.55;;;1.00;;
68457;SDS011;65384;52.016;5.428;2023-04-25T13:41:14;6.85;;;1.20;;
68457;SDS011;65384;52.016;5.428;2023-04-25T13:43:43;5.40;;;1.20;;
68457;SDS011;65384;52.016;5.428;2023-04-25T13:46:08;1.77;;;0.82;;
68457;SDS011;65384;52.016;5.428;2023-04-25T13:48:34;4.28;;;0.80;;
68457;SDS011;65384;52.016;5.428;2023-04-25T13:51:00;4.40;;;1.10;;
68457;SDS011;65384;52.016;5.428;2023-04-25T13:53:25;2.13;;;1.00;;
68457;SDS011;65384;52.016;5.428;2023-04-25T13:55:51;4.00;;;1.00;;
68457;SDS011;65384;52.016;5.428;2023-04-25T13:58:16;3.88;;;0.80;;
68457;SDS011;65384;52.016;5.428;2023-04-25T14:00:41;3.28;;;0.90;;
68457;SDS011;65384;52.016;5.428;2023-04-25T14:03:08;3.22;;;0.82;;
68457;SDS011;65384;52.016;5.428;2023-04-25T14:05:34;2.40;;;0.70;;
68457;SDS011;65384;52.016;5.428;2023-04-25T14:08:03;1.77;;;0.80;;
68457;SDS011;65384;52.016;5.428;2023-04-25T14:10:29;3.60;;;0.85;;
68457;SDS011;65384;52.016;5.428;2023-04-25T14:12:55;2.95;;;0.90;;
68457;SDS011;65384;52.016;5.428;2023-04-25T14:15:20;2.67;;;0.80;;
68457;SDS011;65384;52.016;5.428;2023-04-25T14:17:45;2.38;;;0.90;;
68457;SDS011;65384;52.016;5.428;2023-04-25T14:20:13;3.33;;;0.82;;
68457;SDS011;65384;52.016;5.428;2023-04-25T14:22:38;2.95;;;1.05;;
68457;SDS011;65384;52.016;5.428;2023-04-25T14:25:07;3.92;;;0.90;;
68457;SDS011;65384;52.016;5.428;2023-04-25T14:27:34;3.67;;;0.85;;
68457;SDS011;65384;52.016;5.428;2023-04-25T14:29:59;3.45;;;1.05;;
68457;SDS011;65384;52.016;5.428;2023-04-25T14:32:24;3.30;;;1.00;;
68457;SDS011;65384;52.016;5.428;2023-04-25T14:34:50;3.78;;;1.20;;
68457;SDS011;65384;52.016;5.428;2023-04-25T14:37:15;5.32;;;1.02;;
68457;SDS011;65384;52.016;5.428;2023-04-25T14:39:41;3.25;;;0.90;;
68457;SDS011;65384;52.016;5.428;2023-04-25T14:42:06;3.20;;;1.00;;
68457;SDS011;65384;52.016;5.428;2023-04-25T14:44:31;2.88;;;0.82;;
68457;SDS011;65384;52.016;5.428;2023-04-25T14:46:57;4.40;;;1.00;;
68457;SDS011;65384;52.016;5.428;2023-04-25T14:49:22;3.88;;;1.08;;
68457;SDS011;65384;52.016;5.428;2023-04-25T14:51:47;7.35;;;1.65;;
68457;SDS011;65384;52.016;5.428;2023-04-25T14:54:13;12.88;;;1.77;;
68457;SDS011;65384;52.016;5.428;2023-04-25T14:56:38;6.38;;;1.15;;